createdAt,value
2018-08-09T07:23:42.493Z,23.80
2018-08-09T07:25:44.571Z,25.90
2018-08-09T07:27:46.867Z,25.60
2018-08-09T07:29:49.245Z,25.90
2018-08-09T07:31:51.284Z,25.90
2018-08-09T07:33:53.420Z,25.90
2018-08-09T07:35:55.618Z,25.70
2018-08-09T07:37:57.676Z,26.10
2018-08-09T07:39:59.772Z,26.30
2018-08-09T07:42:01.888Z,26.30
2018-08-09T07:44:04.605Z,26.70
2018-08-09T07:46:07.018Z,26.60
2018-08-09T07:48:09.377Z,26.30
2018-08-09T07:50:11.453Z,25.90
2018-08-09T07:52:13.500Z,26.30
2018-08-09T07:54:16.015Z,26.40
2018-08-09T07:56:18.303Z,26.60
2018-08-09T07:58:20.442Z,26.90
2018-08-09T08:00:22.534Z,26.40
2018-08-09T08:02:24.652Z,27.20
2018-08-09T08:04:26.818Z,27.30
2018-08-09T08:06:29.084Z,27.00
2018-08-09T08:08:31.258Z,27.40
2018-08-09T08:10:33.263Z,27.00
2018-08-09T08:12:35.349Z,27.20
2018-08-09T08:14:38.124Z,26.80
2018-08-09T08:16:40.288Z,27.40
2018-08-09T08:18:42.373Z,27.30
2018-08-09T08:20:44.732Z,27.30
2018-08-09T08:22:46.826Z,27.20
2018-08-09T08:24:49.109Z,27.50
2018-08-09T08:26:51.307Z,27.30
2018-08-09T08:28:53.225Z,27.30
2018-08-09T08:30:55.385Z,27.60
2018-08-09T08:32:57.433Z,27.40
2018-08-09T08:34:59.513Z,27.30
2018-08-09T08:37:01.619Z,27.20
2018-08-09T08:39:06.748Z,27.40
2018-08-09T08:41:08.781Z,27.40
2018-08-09T08:43:11.824Z,27.20
2018-08-09T08:45:13.834Z,27.40
2018-08-09T08:47:15.901Z,27.80
2018-08-09T08:49:17.939Z,27.80
2018-08-09T08:51:20.915Z,28.40
2018-08-09T08:53:23.000Z,28.40
2018-08-09T08:55:25.082Z,28.50
2018-08-09T08:57:27.132Z,28.70
2018-08-09T08:59:29.917Z,28.50
2018-08-09T09:01:32.188Z,28.80
2018-08-09T09:03:34.294Z,28.70
2018-08-09T09:05:37.067Z,29.00
2018-08-09T09:07:39.397Z,28.90
2018-08-09T09:09:41.477Z,29.20
2018-08-09T09:11:43.517Z,29.40
2018-08-09T09:13:45.648Z,29.90
2018-08-09T09:15:47.636Z,30.20
2018-08-09T09:17:49.668Z,30.20
2018-08-09T09:19:51.722Z,29.90
2018-08-09T09:21:53.797Z,29.80
2018-08-09T09:23:55.840Z,29.40
2018-08-09T09:25:57.909Z,29.10
2018-08-09T09:27:59.982Z,28.80
2018-08-09T09:30:02.088Z,28.60
2018-08-09T09:32:04.108Z,28.70
2018-08-09T09:34:06.162Z,29.00
2018-08-09T09:36:08.236Z,29.60
2018-08-09T09:38:10.301Z,29.70
2018-08-09T09:40:12.378Z,29.50
2018-08-09T09:42:16.548Z,29.30
2018-08-09T09:44:18.645Z,28.90
2018-08-09T09:46:20.777Z,28.50
2018-08-09T09:48:22.876Z,27.90
2018-08-09T09:50:24.893Z,27.60
2018-08-09T09:52:26.948Z,27.30
2018-08-09T09:54:29.038Z,27.10
2018-08-09T09:56:31.127Z,26.90
2018-08-09T09:58:33.162Z,26.50
2018-08-09T10:00:41.045Z,26.30
2018-08-09T10:02:43.760Z,26.30
2018-08-09T10:04:45.976Z,26.30
2018-08-09T10:06:48.088Z,26.00
2018-08-09T10:08:50.249Z,26.30
2018-08-09T10:10:52.960Z,26.40
2018-08-09T10:12:55.102Z,26.60
2018-08-09T10:14:57.164Z,27.00
2018-08-09T10:16:59.342Z,27.50
2018-08-09T10:19:01.606Z,28.00
2018-08-09T10:21:04.428Z,28.40
2018-08-09T10:23:07.349Z,28.70
2018-08-09T10:25:09.445Z,29.00
2018-08-09T10:27:11.578Z,29.20
2018-08-09T10:29:13.617Z,29.60
2018-08-09T10:31:15.660Z,29.90
2018-08-09T10:33:17.683Z,29.70
2018-08-09T10:35:19.773Z,30.10
2018-08-09T10:37:21.881Z,29.70
2018-08-09T10:39:23.937Z,29.40
2018-08-09T10:41:25.984Z,29.30
2018-08-09T10:43:28.018Z,29.10
2018-08-09T10:45:30.068Z,29.40
2018-08-09T10:47:32.124Z,29.80
2018-08-09T10:49:34.122Z,29.90
2018-08-09T10:51:36.184Z,29.80
2018-08-09T10:53:38.208Z,29.80
2018-08-09T10:55:40.252Z,30.30
2018-08-09T10:57:42.246Z,30.60
2018-08-09T10:59:44.306Z,31.00
2018-08-09T11:01:46.364Z,30.90
2018-08-09T11:03:48.331Z,30.80
2018-08-09T11:05:50.349Z,31.20
2018-08-09T11:07:52.380Z,31.70
2018-08-09T11:09:54.408Z,31.50
2018-08-09T11:11:56.463Z,30.80
2018-08-09T11:13:58.493Z,30.80
2018-08-09T11:16:00.537Z,30.50
2018-08-09T11:18:02.556Z,30.50
2018-08-09T11:20:04.581Z,30.20
2018-08-09T11:22:07.313Z,30.70
2018-08-09T11:24:09.339Z,30.60
2018-08-09T11:26:11.360Z,30.60
2018-08-09T11:28:13.360Z,30.70
2018-08-09T11:30:15.372Z,30.50
2018-08-09T11:32:17.441Z,30.40
2018-08-09T11:34:19.520Z,30.20
2018-08-09T11:36:21.645Z,30.00
2018-08-09T11:38:24.612Z,30.00
2018-08-09T11:40:26.640Z,30.10
2018-08-09T11:42:28.676Z,30.20
2018-08-09T11:44:30.724Z,29.90
2018-08-09T11:46:32.747Z,29.80
2018-08-09T11:48:34.956Z,29.50
2018-08-09T11:50:36.960Z,29.90
2018-08-09T11:52:39.013Z,30.00
2018-08-09T11:54:41.012Z,30.70
2018-08-09T11:56:43.102Z,31.10
2018-08-09T11:58:45.061Z,32.20
2018-08-09T12:00:47.096Z,32.40
2018-08-09T12:02:49.273Z,32.70
2018-08-09T12:04:51.284Z,33.30
2018-08-09T12:06:53.317Z,33.00
2018-08-09T12:08:55.328Z,32.60
2018-08-09T12:10:57.368Z,33.10
2018-08-09T12:12:59.428Z,33.50
2018-08-09T12:15:01.523Z,32.50
2018-08-09T12:17:03.678Z,33.20
2018-08-09T12:19:06.424Z,33.50
2018-08-09T12:21:08.466Z,33.80
2018-08-09T12:23:10.536Z,33.50
2018-08-09T12:25:12.577Z,34.00
2018-08-09T12:27:14.636Z,34.40
2018-08-09T12:29:16.817Z,34.70
2018-08-09T12:31:18.904Z,34.80
2018-08-09T12:33:21.005Z,34.50
2018-08-09T12:35:23.192Z,35.00
2018-08-09T12:37:25.324Z,34.80
2018-08-09T12:39:27.356Z,34.40
2018-08-09T12:41:29.381Z,34.20
2018-08-09T12:43:31.444Z,34.60
2018-08-09T12:45:33.536Z,34.80
2018-08-09T12:47:36.472Z,34.60
2018-08-09T12:49:38.485Z,35.20
2018-08-09T12:51:40.536Z,35.30
2018-08-09T12:53:42.552Z,35.20
2018-08-09T12:55:44.580Z,35.20
2018-08-09T12:57:46.593Z,35.10
2018-08-09T12:59:48.667Z,34.60
2018-08-09T13:01:50.684Z,33.60
2018-08-09T13:03:53.189Z,33.40
2018-08-09T13:05:55.304Z,33.30
2018-08-09T13:07:57.310Z,33.00
2018-08-09T13:10:00.340Z,32.50
2018-08-09T13:12:02.469Z,32.30
2018-08-09T13:14:05.340Z,32.30
2018-08-09T13:16:07.469Z,32.10
2018-08-09T13:18:10.317Z,32.00
2018-08-09T13:20:15.543Z,31.60
2018-08-09T20:26:49.939Z,22.30
2018-08-09T20:29:31.215Z,22.20
2018-08-09T20:31:53.816Z,22.20
